sensor_id;sensor_type;location;lat;lon;timestamp;P1;durP1;ratioP1;P2;durP2;ratioP2
18893;SDS011;9579;49.488;8.226;2022-08-27T06:02:16;12.45;;;11.35;;
18893;SDS011;9579;49.488;8.226;2022-08-27T06:05:04;11.63;;;10.65;;
18893;SDS011;9579;49.488;8.226;2022-08-27T06:07:52;12.05;;;11.05;;
18893;SDS011;9579;49.488;8.226;2022-08-27T06:10:39;12.32;;;11.32;;
18893;SDS011;9579;49.488;8.226;2022-08-27T06:13:27;13.02;;;11.93;;
18893;SDS011;9579;49.488;8.226;2022-08-27T06:16:16;14.15;;;12.85;;
18893;SDS011;9579;49.488;8.226;2022-08-27T06:19:06;10.88;;;10.07;;
18893;SDS011;9579;49.488;8.226;2022-08-27T06:21:56;13.35;;;12.18;;
18893;SDS011;9579;49.488;8.226;2022-08-27T06:24:44;14.85;;;13.52;;
18893;SDS011;9579;49.488;8.226;2022-08-27T06:27:31;13.32;;;12.23;;
18893;SDS011;9579;49.488;8.226;2022-08-27T06:30:18;13.30;;;12.05;;
18893;SDS011;9579;49.488;8.226;2022-08-27T06:33:05;13.90;;;12.80;;
18893;SDS011;9579;49.488;8.226;2022-08-27T06:35:53;13.50;;;12.30;;
18893;SDS011;9579;49.488;8.226;2022-08-27T06:38:40;14.57;;;13.32;;
18893;SDS011;9579;49.488;8.226;2022-08-27T06:41:28;15.95;;;14.55;;
18893;SDS011;9579;49.488;8.226;2022-08-27T06:44:15;16.27;;;14.77;;
18893;SDS011;9579;49.488;8.226;2022-08-27T06:47:02;15.65;;;14.25;;
18893;SDS011;9579;49.488;8.226;2022-08-27T06:49:49;15.02;;;13.70;;
18893;SDS011;9579;49.488;8.226;2022-08-27T06:52:38;16.08;;;14.70;;
18893;SDS011;9579;49.488;8.226;2022-08-27T06:55:25;15.95;;;14.55;;
18893;SDS011;9579;49.488;8.226;2022-08-27T06:58:12;18.60;;;17.05;;
18893;SDS011;9579;49.488;8.226;2022-08-27T07:01:00;15.93;;;14.52;;
18893;SDS011;9579;49.488;8.226;2022-08-27T07:03:48;15.65;;;14.35;;
18893;SDS011;9579;49.488;8.226;2022-08-27T07:06:35;18.13;;;16.48;;
18893;SDS011;9579;49.488;8.226;2022-08-27T07:09:25;19.20;;;17.30;;
18893;SDS011;9579;49.488;8.226;2022-08-27T07:12:14;18.35;;;16.67;;
18893;SDS011;9579;49.488;8.226;2022-08-27T07:15:02;14.15;;;12.95;;
18893;SDS011;9579;49.488;8.226;2022-08-27T07:17:49;17.92;;;16.33;;
18893;SDS011;9579;49.488;8.226;2022-08-27T07:20:38;16.60;;;15.15;;
18893;SDS011;9579;49.488;8.226;2022-08-27T07:23:26;15.73;;;14.43;;
18893;SDS011;9579;49.488;8.226;2022-08-27T07:26:16;17.17;;;15.57;;
18893;SDS011;9579;49.488;8.226;2022-08-27T07:29:04;17.58;;;16.08;;
18893;SDS011;9579;49.488;8.226;2022-08-27T07:31:52;17.13;;;15.63;;
18893;SDS011;9579;49.488;8.226;2022-08-27T07:34:39;14.65;;;13.40;;
18893;SDS011;9579;49.488;8.226;2022-08-27T07:37:27;15.75;;;14.35;;
18893;SDS011;9579;49.488;8.226;2022-08-27T07:40:14;16.13;;;14.60;;
18893;SDS011;9579;49.488;8.226;2022-08-27T07:43:05;20.70;;;18.80;;
18893;SDS011;9579;49.488;8.226;2022-08-27T07:46:09;15.65;;;14.20;;
18893;SDS011;9579;49.488;8.226;2022-08-27T07:48:56;15.95;;;14.55;;
18893;SDS011;9579;49.488;8.226;2022-08-27T07:51:44;17.48;;;15.93;;
18893;SDS011;9579;49.488;8.226;2022-08-27T07:54:31;16.25;;;14.85;;
18893;SDS011;9579;49.488;8.226;2022-08-27T07:57:18;15.80;;;14.52;;
18893;SDS011;9579;49.488;8.226;2022-08-27T08:00:07;18.10;;;16.45;;
18893;SDS011;9579;49.488;8.226;2022-08-27T08:02:55;19.67;;;17.73;;
18893;SDS011;9579;49.488;8.226;2022-08-27T08:05:42;17.60;;;16.10;;
18893;SDS011;9579;49.488;8.226;2022-08-27T08:08:30;15.27;;;13.98;;
18893;SDS011;9579;49.488;8.226;2022-08-27T08:11:18;18.50;;;16.83;;
18893;SDS011;9579;49.488;8.226;2022-08-27T08:14:05;16.75;;;15.35;;
18893;SDS011;9579;49.488;8.226;2022-08-27T08:16:54;16.48;;;15.05;;
18893;SDS011;9579;49.488;8.226;2022-08-27T08:19:44;14.75;;;13.23;;
18893;SDS011;9579;49.488;8.226;2022-08-27T08:22:33;17.33;;;15.55;;
18893;SDS011;9579;49.488;8.226;2022-08-27T08:25:21;14.07;;;12.88;;
18893;SDS011;9579;49.488;8.226;2022-08-27T08:28:08;14.20;;;12.90;;
18893;SDS011;9579;49.488;8.226;2022-08-27T08:30:56;19.23;;;17.33;;
18893;SDS011;9579;49.488;8.226;2022-08-27T08:33:45;15.65;;;14.35;;
18893;SDS011;9579;49.488;8.226;2022-08-27T08:36:33;16.23;;;14.63;;
18893;SDS011;9579;49.488;8.226;2022-08-27T08:39:20;13.63;;;12.23;;
18893;SDS011;9579;49.488;8.226;2022-08-27T08:42:09;13.50;;;11.98;;
18893;SDS011;9579;49.488;8.226;2022-08-27T08:45:10;14.27;;;12.95;;
18893;SDS011;9579;49.488;8.226;2022-08-27T08:48:04;15.82;;;14.35;;
18893;SDS011;9579;49.488;8.226;2022-08-27T08:50:56;13.45;;;12.18;;
18893;SDS011;9579;49.488;8.226;2022-08-27T08:53:49;13.52;;;12.23;;
18893;SDS011;9579;49.488;8.226;2022-08-27T08:56:40;14.70;;;13.40;;
18893;SDS011;9579;49.488;8.226;2022-08-27T08:59:32;10.18;;;9.18;;
18893;SDS011;9579;49.488;8.226;2022-08-27T09:02:22;12.07;;;10.98;;
18893;SDS011;9579;49.488;8.226;2022-08-27T09:05:09;11.55;;;10.35;;
18893;SDS011;9579;49.488;8.226;2022-08-27T09:08:00;9.43;;;8.63;;
18893;SDS011;9579;49.488;8.226;2022-08-27T09:10:54;11.38;;;10.27;;
18893;SDS011;9579;49.488;8.226;2022-08-27T09:13:48;11.10;;;10.02;;
18893;SDS011;9579;49.488;8.226;2022-08-27T09:16:38;10.60;;;9.60;;
18893;SDS011;9579;49.488;8.226;2022-08-27T09:19:25;11.57;;;10.38;;
18893;SDS011;9579;49.488;8.226;2022-08-27T09:22:14;10.82;;;9.82;;
18893;SDS011;9579;49.488;8.226;2022-08-27T09:25:08;10.18;;;9.27;;
18893;SDS011;9579;49.488;8.226;2022-08-27T09:28:00;9.63;;;8.80;;
18893;SDS011;9579;49.488;8.226;2022-08-27T09:30:51;8.93;;;8.13;;
18893;SDS011;9579;49.488;8.226;2022-08-27T09:33:40;9.88;;;8.98;;
18893;SDS011;9579;49.488;8.226;2022-08-27T09:36:27;10.18;;;9.27;;
18893;SDS011;9579;49.488;8.226;2022-08-27T09:39:14;9.65;;;8.75;;
18893;SDS011;9579;49.488;8.226;2022-08-27T09:42:02;9.60;;;8.70;;
18893;SDS011;9579;49.488;8.226;2022-08-27T09:44:52;11.30;;;9.48;;
18893;SDS011;9579;49.488;8.226;2022-08-27T09:47:40;11.48;;;9.60;;
18893;SDS011;9579;49.488;8.226;2022-08-27T09:50:30;9.75;;;8.75;;
18893;SDS011;9579;49.488;8.226;2022-08-27T09:53:23;8.77;;;7.97;;
18893;SDS011;9579;49.488;8.226;2022-08-27T09:56:20;9.30;;;8.40;;
18893;SDS011;9579;49.488;8.226;2022-08-27T09:59:18;10.23;;;9.20;;
18893;SDS011;9579;49.488;8.226;2022-08-27T10:02:12;9.45;;;8.52;;
18893;SDS011;9579;49.488;8.226;2022-08-27T10:05:02;7.90;;;7.20;;
18893;SDS011;9579;49.488;8.226;2022-08-27T10:08:00;8.15;;;7.45;;
18893;SDS011;9579;49.488;8.226;2022-08-27T10:10:54;8.38;;;7.57;;
18893;SDS011;9579;49.488;8.226;2022-08-27T10:13:46;10.15;;;8.75;;
18893;SDS011;9579;49.488;8.226;2022-08-27T10:16:43;8.45;;;7.75;;
18893;SDS011;9579;49.488;8.226;2022-08-27T10:19:41;9.82;;;8.93;;
18893;SDS011;9579;49.488;8.226;2022-08-27T10:22:41;9.77;;;8.88;;
18893;SDS011;9579;49.488;8.226;2022-08-27T10:25:38;8.52;;;7.72;;
18893;SDS011;9579;49.488;8.226;2022-08-27T10:28:43;8.68;;;7.90;;
18893;SDS011;9579;49.488;8.226;2022-08-27T10:31:46;8.50;;;7.70;;
18893;SDS011;9579;49.488;8.226;2022-08-27T10:34:43;7.60;;;7.00;;
18893;SDS011;9579;49.488;8.226;2022-08-27T10:37:38;7.30;;;6.60;;
18893;SDS011;9579;49.488;8.226;2022-08-27T10:40:37;10.07;;;9.10;;
18893;SDS011;9579;49.488;8.226;2022-08-27T10:43:33;7.97;;;7.28;;
18893;SDS011;9579;49.488;8.226;2022-08-27T10:46:38;8.95;;;8.13;;
18893;SDS011;9579;49.488;8.226;2022-08-27T10:49:36;8.43;;;7.63;;
18893;SDS011;9579;49.488;8.226;2022-08-27T10:52:31;8.38;;;7.45;;
18893;SDS011;9579;49.488;8.226;2022-08-27T10:55:23;9.23;;;8.35;;
18893;SDS011;9579;49.488;8.226;2022-08-27T10:58:19;8.75;;;7.95;;
18893;SDS011;9579;49.488;8.226;2022-08-27T11:01:19;8.23;;;7.43;;
18893;SDS011;9579;49.488;8.226;2022-08-27T11:04:13;8.18;;;7.38;;
18893;SDS011;9579;49.488;8.226;2022-08-27T11:07:06;9.82;;;8.82;;
18893;SDS011;9579;49.488;8.226;2022-08-27T11:09:59;8.18;;;7.38;;
18893;SDS011;9579;49.488;8.226;2022-08-27T11:12:51;9.43;;;8.50;;
18893;SDS011;9579;49.488;8.226;2022-08-27T11:15:42;9.48;;;8.40;;
18893;SDS011;9579;49.488;8.226;2022-08-27T11:18:34;9.52;;;8.65;;
18893;SDS011;9579;49.488;8.226;2022-08-27T11:21:28;8.60;;;7.80;;
18893;SDS011;9579;49.488;8.226;2022-08-27T11:24:21;7.95;;;7.25;;
18893;SDS011;9579;49.488;8.226;2022-08-27T11:27:15;8.20;;;7.43;;
18893;SDS011;9579;49.488;8.226;2022-08-27T11:30:08;8.68;;;7.82;;
18893;SDS011;9579;49.488;8.226;2022-08-27T11:33:03;8.30;;;7.50;;
18893;SDS011;9579;49.488;8.226;2022-08-27T11:36:04;8.23;;;7.50;;
18893;SDS011;9579;49.488;8.226;2022-08-27T11:39:03;8.82;;;8.13;;
18893;SDS011;9579;49.488;8.226;2022-08-27T11:42:00;8.52;;;7.72;;
18893;SDS011;9579;49.488;8.226;2022-08-27T11:44:54;8.95;;;8.20;;
18893;SDS011;9579;49.488;8.226;2022-08-27T11:47:50;7.70;;;7.00;;
18893;SDS011;9579;49.488;8.226;2022-08-27T11:50:39;8.05;;;7.25;;
18893;SDS011;9579;49.488;8.226;2022-08-27T11:53:28;8.40;;;7.70;;
18893;SDS011;9579;49.488;8.226;2022-08-27T11:56:31;7.07;;;6.57;;
18893;SDS011;9579;49.488;8.226;2022-08-27T11:59:27;8.65;;;7.80;;
18893;SDS011;9579;49.488;8.226;2022-08-27T12:02:19;8.52;;;7.68;;
18893;SDS011;9579;49.488;8.226;2022-08-27T12:05:19;8.15;;;7.45;;
18893;SDS011;9579;49.488;8.226;2022-08-27T12:08:25;7.38;;;6.72;;
18893;SDS011;9579;49.488;8.226;2022-08-27T12:11:19;8.18;;;7.35;;
18893;SDS011;9579;49.488;8.226;2022-08-27T12:14:19;8.18;;;7.43;;
18893;SDS011;9579;49.488;8.226;2022-08-27T12:17:20;7.65;;;6.97;;
18893;SDS011;9579;49.488;8.226;2022-08-27T12:20:16;7.65;;;7.05;;
18893;SDS011;9579;49.488;8.226;2022-08-27T12:23:11;8.05;;;7.28;;
18893;SDS011;9579;49.488;8.226;2022-08-27T12:26:28;7.93;;;7.18;;
18893;SDS011;9579;49.488;8.226;2022-08-27T12:29:22;7.75;;;7.13;;
18893;SDS011;9579;49.488;8.226;2022-08-27T12:32:26;7.90;;;7.18;;
18893;SDS011;9579;49.488;8.226;2022-08-27T12:35:18;9.05;;;8.25;;
18893;SDS011;9579;49.488;8.226;2022-08-27T12:38:09;10.20;;;9.20;;
18893;SDS011;9579;49.488;8.226;2022-08-27T12:41:00;8.38;;;7.55;;
18893;SDS011;9579;49.488;8.226;2022-08-27T12:44:05;7.80;;;7.20;;
18893;SDS011;9579;49.488;8.226;2022-08-27T12:46:57;8.57;;;7.85;;
18893;SDS011;9579;49.488;8.226;2022-08-27T12:49:47;8.30;;;7.60;;
18893;SDS011;9579;49.488;8.226;2022-08-27T12:52:43;9.85;;;8.95;;
18893;SDS011;9579;49.488;8.226;2022-08-27T12:55:44;8.20;;;7.50;;
18893;SDS011;9579;49.488;8.226;2022-08-27T12:58:42;8.70;;;7.95;;
18893;SDS011;9579;49.488;8.226;2022-08-27T13:01:43;8.90;;;8.00;;
18893;SDS011;9579;49.488;8.226;2022-08-27T13:04:39;8.07;;;7.43;;
18893;SDS011;9579;49.488;8.226;2022-08-27T13:07:28;8.50;;;7.68;;
18893;SDS011;9579;49.488;8.226;2022-08-27T13:10:18;8.90;;;8.10;;
18893;SDS011;9579;49.488;8.226;2022-08-27T13:13:10;10.07;;;8.98;;
18893;SDS011;9579;49.488;8.226;2022-08-27T13:16:01;8.35;;;7.55;;
18893;SDS011;9579;49.488;8.226;2022-08-27T13:18:51;8.48;;;7.68;;
18893;SDS011;9579;49.488;8.226;2022-08-27T13:21:38;7.90;;;7.20;;
18893;SDS011;9579;49.488;8.226;2022-08-27T13:24:27;7.75;;;7.10;;
18893;SDS011;9579;49.488;8.226;2022-08-27T13:27:21;7.90;;;7.20;;
18893;SDS011;9579;49.488;8.226;2022-08-27T13:30:10;7.35;;;6.75;;
18893;SDS011;9579;49.488;8.226;2022-08-27T13:32:58;7.35;;;6.60;;
18893;SDS011;9579;49.488;8.226;2022-08-27T13:35:47;7.45;;;6.75;;
18893;SDS011;9579;49.488;8.226;2022-08-27T13:38:37;7.18;;;6.57;;
18893;SDS011;9579;49.488;8.226;2022-08-27T13:41:29;6.97;;;6.38;;
18893;SDS011;9579;49.488;8.226;2022-08-27T13:44:20;6.90;;;6.40;;
18893;SDS011;9579;49.488;8.226;2022-08-27T13:47:13;7.28;;;6.68;;
18893;SDS011;9579;49.488;8.226;2022-08-27T13:50:04;6.95;;;6.45;;
18893;SDS011;9579;49.488;8.226;2022-08-27T13:53:02;7.70;;;7.00;;
18893;SDS011;9579;49.488;8.226;2022-08-27T13:56:10;6.15;;;5.65;;
18893;SDS011;9579;49.488;8.226;2022-08-27T13:59:09;6.80;;;6.30;;
18893;SDS011;9579;49.488;8.226;2022-08-27T14:01:58;6.90;;;6.30;;
18893;SDS011;9579;49.488;8.226;2022-08-27T14:04:47;6.75;;;6.20;;
18893;SDS011;9579;49.488;8.226;2022-08-27T14:07:37;7.50;;;5.97;;
18893;SDS011;9579;49.488;8.226;2022-08-27T14:10:32;6.68;;;6.05;;
18893;SDS011;9579;49.488;8.226;2022-08-27T14:13:22;6.57;;;5.97;;
18893;SDS011;9579;49.488;8.226;2022-08-27T14:16:12;6.80;;;5.90;;
18893;SDS011;9579;49.488;8.226;2022-08-27T14:19:03;6.20;;;5.80;;
18893;SDS011;9579;49.488;8.226;2022-08-27T14:21:52;6.28;;;5.68;;
18893;SDS011;9579;49.488;8.226;2022-08-27T14:24:40;6.07;;;5.60;;
18893;SDS011;9579;49.488;8.226;2022-08-27T14:27:28;6.32;;;5.82;;
18893;SDS011;9579;49.488;8.226;2022-08-27T14:30:17;6.50;;;6.00;;
18893;SDS011;9579;49.488;8.226;2022-08-27T14:33:05;7.18;;;6.63;;
18893;SDS011;9579;49.488;8.226;2022-08-27T14:35:52;6.45;;;5.95;;
18893;SDS011;9579;49.488;8.226;2022-08-27T14:38:41;6.45;;;5.95;;
18893;SDS011;9579;49.488;8.226;2022-08-27T14:44:58;5.97;;;5.40;;
18893;SDS011;9579;49.488;8.226;2022-08-27T14:47:45;6.88;;;6.28;;
18893;SDS011;9579;49.488;8.226;2022-08-27T14:50:32;5.93;;;5.43;;
18893;SDS011;9579;49.488;8.226;2022-08-27T14:53:19;5.85;;;5.45;;
18893;SDS011;9579;49.488;8.226;2022-08-27T14:56:06;6.05;;;5.55;;
18893;SDS011;9579;49.488;8.226;2022-08-27T14:58:53;6.32;;;5.82;;
18893;SDS011;9579;49.488;8.226;2022-08-27T15:01:41;6.43;;;5.82;;
18893;SDS011;9579;49.488;8.226;2022-08-27T15:04:29;6.45;;;5.78;;
18893;SDS011;9579;49.488;8.226;2022-08-27T15:07:16;6.30;;;5.65;;
18893;SDS011;9579;49.488;8.226;2022-08-27T15:10:05;6.90;;;6.03;;
18893;SDS011;9579;49.488;8.226;2022-08-27T15:12:52;6.40;;;5.88;;
18893;SDS011;9579;49.488;8.226;2022-08-27T15:15:40;6.70;;;6.13;;
18893;SDS011;9579;49.488;8.226;2022-08-27T15:18:28;6.30;;;5.80;;
18893;SDS011;9579;49.488;8.226;2022-08-27T15:21:15;6.80;;;6.20;;
18893;SDS011;9579;49.488;8.226;2022-08-27T15:24:05;6.18;;;5.53;;
18893;SDS011;9579;49.488;8.226;2022-08-27T15:26:57;6.47;;;5.97;;
18893;SDS011;9579;49.488;8.226;2022-08-27T15:29:45;5.72;;;5.30;;
18893;SDS011;9579;49.488;8.226;2022-08-27T15:32:33;6.45;;;5.97;;
18893;SDS011;9579;49.488;8.226;2022-08-27T15:35:27;6.13;;;5.72;;
18893;SDS011;9579;49.488;8.226;2022-08-27T15:38:17;6.72;;;6.20;;
18893;SDS011;9579;49.488;8.226;2022-08-27T15:41:04;6.50;;;6.10;;
18893;SDS011;9579;49.488;8.226;2022-08-27T15:43:54;5.90;;;5.50;;
18893;SDS011;9579;49.488;8.226;2022-08-27T15:46:41;7.38;;;6.70;;
18893;SDS011;9579;49.488;8.226;2022-08-27T15:49:29;8.75;;;7.90;;
18893;SDS011;9579;49.488;8.226;2022-08-27T15:52:18;8.32;;;7.63;;
18893;SDS011;9579;49.488;8.226;2022-08-27T15:55:06;7.70;;;7.10;;
18893;SDS011;9579;49.488;8.226;2022-08-27T15:58:00;7.30;;;6.65;;
18893;SDS011;9579;49.488;8.226;2022-08-27T16:00:48;7.85;;;7.25;;
18893;SDS011;9579;49.488;8.226;2022-08-27T16:03:36;8.55;;;7.82;;
18893;SDS011;9579;49.488;8.226;2022-08-27T16:06:25;7.35;;;6.75;;
18893;SDS011;9579;49.488;8.226;2022-08-27T16:09:14;7.70;;;7.00;;
18893;SDS011;9579;49.488;8.226;2022-08-27T16:12:02;7.38;;;6.78;;
18893;SDS011;9579;49.488;8.226;2022-08-27T16:14:49;8.20;;;7.40;;
18893;SDS011;9579;49.488;8.226;2022-08-27T16:17:36;7.93;;;7.32;;
18893;SDS011;9579;49.488;8.226;2022-08-27T16:20:23;8.38;;;7.68;;
18893;SDS011;9579;49.488;8.226;2022-08-27T16:23:11;7.47;;;6.88;;
18893;SDS011;9579;49.488;8.226;2022-08-27T16:26:00;8.13;;;7.43;;
18893;SDS011;9579;49.488;8.226;2022-08-27T16:28:48;7.50;;;7.00;;
18893;SDS011;9579;49.488;8.226;2022-08-27T16:31:35;8.82;;;8.02;;
18893;SDS011;9579;49.488;8.226;2022-08-27T16:34:23;7.68;;;7.07;;
18893;SDS011;9579;49.488;8.226;2022-08-27T16:37:12;7.35;;;6.78;;
18893;SDS011;9579;49.488;8.226;2022-08-27T16:39:59;7.53;;;6.93;;
18893;SDS011;9579;49.488;8.226;2022-08-27T16:42:48;7.68;;;7.07;;
18893;SDS011;9579;49.488;8.226;2022-08-27T16:45:36;7.57;;;6.88;;
18893;SDS011;9579;49.488;8.226;2022-08-27T16:48:23;7.53;;;6.93;;
18893;SDS011;9579;49.488;8.226;2022-08-27T16:51:29;7.00;;;6.50;;
18893;SDS011;9579;49.488;8.226;2022-08-27T16:54:18;7.10;;;6.50;;
18893;SDS011;9579;49.488;8.226;2022-08-27T16:57:05;7.20;;;6.60;;
18893;SDS011;9579;49.488;8.226;2022-08-27T16:59:55;7.30;;;6.80;;
18893;SDS011;9579;49.488;8.226;2022-08-27T17:02:42;7.10;;;6.60;;
18893;SDS011;9579;49.488;8.226;2022-08-27T17:05:29;6.60;;;6.20;;
18893;SDS011;9579;49.488;8.226;2022-08-27T17:08:20;6.85;;;6.45;;
18893;SDS011;9579;49.488;8.226;2022-08-27T17:11:09;6.82;;;6.32;;
18893;SDS011;9579;49.488;8.226;2022-08-27T17:13:58;6.93;;;6.28;;
18893;SDS011;9579;49.488;8.226;2022-08-27T17:16:50;6.93;;;6.35;;
18893;SDS011;9579;49.488;8.226;2022-08-27T17:19:39;6.80;;;6.30;;
18893;SDS011;9579;49.488;8.226;2022-08-27T17:22:26;6.97;;;6.53;;
18893;SDS011;9579;49.488;8.226;2022-08-27T17:25:13;7.22;;;6.72;;
18893;SDS011;9579;49.488;8.226;2022-08-27T17:28:03;6.53;;;6.03;;
18893;SDS011;9579;49.488;8.226;2022-08-27T17:30:51;6.90;;;6.40;;
18893;SDS011;9579;49.488;8.226;2022-08-27T17:33:42;7.25;;;6.75;;
18893;SDS011;9579;49.488;8.226;2022-08-27T17:36:38;7.35;;;6.75;;
18893;SDS011;9579;49.488;8.226;2022-08-27T17:39:26;7.70;;;7.10;;
18893;SDS011;9579;49.488;8.226;2022-08-27T17:42:15;6.93;;;6.43;;
18893;SDS011;9579;49.488;8.226;2022-08-27T17:45:02;7.38;;;6.78;;
18893;SDS011;9579;49.488;8.226;2022-08-27T17:47:50;8.10;;;7.45;;
18893;SDS011;9579;49.488;8.226;2022-08-27T17:50:43;7.53;;;7.03;;
18893;SDS011;9579;49.488;8.226;2022-08-27T17:53:30;7.88;;;7.18;;
18893;SDS011;9579;49.488;8.226;2022-08-27T17:56:18;7.80;;;7.20;;
18893;SDS011;9579;49.488;8.226;2022-08-27T17:59:06;7.40;;;6.80;;
18893;SDS011;9579;49.488;8.226;2022-08-27T18:01:53;7.70;;;7.00;;
18893;SDS011;9579;49.488;8.226;2022-08-27T18:04:41;7.40;;;6.90;;
18893;SDS011;9579;49.488;8.226;2022-08-27T18:07:29;8.23;;;7.63;;
18893;SDS011;9579;49.488;8.226;2022-08-27T18:10:17;8.05;;;7.43;;
18893;SDS011;9579;49.488;8.226;2022-08-27T18:13:09;7.93;;;7.32;;
18893;SDS011;9579;49.488;8.226;2022-08-27T18:15:59;7.80;;;7.28;;
18893;SDS011;9579;49.488;8.226;2022-08-27T18:18:46;8.02;;;7.43;;
18893;SDS011;9579;49.488;8.226;2022-08-27T18:21:33;7.63;;;7.13;;
18893;SDS011;9579;49.488;8.226;2022-08-27T18:24:23;7.85;;;7.15;;
18893;SDS011;9579;49.488;8.226;2022-08-27T18:27:10;7.47;;;6.97;;
18893;SDS011;9579;49.488;8.226;2022-08-27T18:29:57;7.63;;;7.10;;
18893;SDS011;9579;49.488;8.226;2022-08-27T18:32:44;6.68;;;6.20;;
18893;SDS011;9579;49.488;8.226;2022-08-27T18:35:32;7.53;;;7.03;;
18893;SDS011;9579;49.488;8.226;2022-08-27T18:38:19;6.72;;;6.22;;
18893;SDS011;9579;49.488;8.226;2022-08-27T18:41:08;7.03;;;6.43;;
18893;SDS011;9579;49.488;8.226;2022-08-27T18:43:55;6.68;;;6.18;;
18893;SDS011;9579;49.488;8.226;2022-08-27T18:50:02;6.47;;;6.07;;
18893;SDS011;9579;49.488;8.226;2022-08-27T18:52:50;6.72;;;6.20;;
18893;SDS011;9579;49.488;8.226;2022-08-27T18:55:39;6.22;;;5.80;;
18893;SDS011;9579;49.488;8.226;2022-08-27T18:58:27;7.25;;;6.75;;
18893;SDS011;9579;49.488;8.226;2022-08-27T19:01:16;7.00;;;6.50;;
18893;SDS011;9579;49.488;8.226;2022-08-27T19:04:05;6.93;;;6.53;;
18893;SDS011;9579;49.488;8.226;2022-08-27T19:06:52;7.38;;;6.78;;
18893;SDS011;9579;49.488;8.226;2022-08-27T19:09:39;8.27;;;7.65;;
18893;SDS011;9579;49.488;8.226;2022-08-27T19:12:26;7.00;;;6.50;;
18893;SDS011;9579;49.488;8.226;2022-08-27T19:15:15;7.15;;;6.65;;
18893;SDS011;9579;49.488;8.226;2022-08-27T19:18:02;7.47;;;6.78;;
18893;SDS011;9579;49.488;8.226;2022-08-27T19:20:50;7.28;;;6.68;;
18893;SDS011;9579;49.488;8.226;2022-08-27T19:23:37;6.93;;;6.43;;
18893;SDS011;9579;49.488;8.226;2022-08-27T19:26:24;7.22;;;6.63;;
18893;SDS011;9579;49.488;8.226;2022-08-27T19:29:12;7.75;;;7.22;;
18893;SDS011;9579;49.488;8.226;2022-08-27T19:32:01;7.57;;;7.00;;
18893;SDS011;9579;49.488;8.226;2022-08-27T19:34:49;6.70;;;6.30;;
18893;SDS011;9579;49.488;8.226;2022-08-27T19:37:37;7.68;;;7.18;;
18893;SDS011;9579;49.488;8.226;2022-08-27T19:40:27;7.50;;;7.00;;
18893;SDS011;9579;49.488;8.226;2022-08-27T19:43:14;7.65;;;7.15;;
18893;SDS011;9579;49.488;8.226;2022-08-27T19:46:02;8.00;;;7.45;;
18893;SDS011;9579;49.488;8.226;2022-08-27T19:48:51;7.65;;;7.05;;
18893;SDS011;9579;49.488;8.226;2022-08-27T19:51:39;7.43;;;6.72;;
18893;SDS011;9579;49.488;8.226;2022-08-27T19:54:26;8.18;;;7.47;;
18893;SDS011;9579;49.488;8.226;2022-08-27T19:57:13;7.22;;;6.72;;
18893;SDS011;9579;49.488;8.226;2022-08-27T20:00:02;7.90;;;7.30;;
18893;SDS011;9579;49.488;8.226;2022-08-27T20:02:50;7.57;;;7.07;;
18893;SDS011;9579;49.488;8.226;2022-08-27T20:05:39;7.47;;;6.97;;
18893;SDS011;9579;49.488;8.226;2022-08-27T20:08:26;8.32;;;7.53;;
18893;SDS011;9579;49.488;8.226;2022-08-27T20:11:13;7.82;;;7.13;;
18893;SDS011;9579;49.488;8.226;2022-08-27T20:14:01;8.02;;;7.43;;
18893;SDS011;9579;49.488;8.226;2022-08-27T20:16:48;6.95;;;6.45;;
18893;SDS011;9579;49.488;8.226;2022-08-27T20:19:35;7.53;;;6.93;;
18893;SDS011;9579;49.488;8.226;2022-08-27T20:22:26;7.43;;;6.88;;
18893;SDS011;9579;49.488;8.226;2022-08-27T20:25:14;7.68;;;6.93;;
18893;SDS011;9579;49.488;8.226;2022-08-27T20:28:01;6.85;;;6.35;;
18893;SDS011;9579;49.488;8.226;2022-08-27T20:30:51;7.45;;;6.78;;
18893;SDS011;9579;49.488;8.226;2022-08-27T20:33:38;7.65;;;6.95;;
18893;SDS011;9579;49.488;8.226;2022-08-27T20:36:26;7.35;;;6.80;;
18893;SDS011;9579;49.488;8.226;2022-08-27T20:39:17;6.70;;;6.20;;
18893;SDS011;9579;49.488;8.226;2022-08-27T20:42:04;7.20;;;6.60;;
18893;SDS011;9579;49.488;8.226;2022-08-27T20:44:52;7.30;;;6.65;;
18893;SDS011;9579;49.488;8.226;2022-08-27T20:47:39;7.10;;;6.55;;
18893;SDS011;9579;49.488;8.226;2022-08-27T20:50:27;6.95;;;6.45;;
18893;SDS011;9579;49.488;8.226;2022-08-27T20:53:14;6.65;;;6.10;;
18893;SDS011;9579;49.488;8.226;2022-08-27T20:56:03;7.10;;;6.10;;
18893;SDS011;9579;49.488;8.226;2022-08-27T20:58:50;6.68;;;6.18;;
18893;SDS011;9579;49.488;8.226;2022-08-27T21:01:54;7.10;;;6.40;;
18893;SDS011;9579;49.488;8.226;2022-08-27T21:04:49;6.68;;;6.10;;
18893;SDS011;9579;49.488;8.226;2022-08-27T21:07:36;6.28;;;5.78;;
18893;SDS011;9579;49.488;8.226;2022-08-27T21:10:24;6.55;;;6.03;;
18893;SDS011;9579;49.488;8.226;2022-08-27T21:13:13;6.38;;;5.88;;
18893;SDS011;9579;49.488;8.226;2022-08-27T21:16:08;6.38;;;5.88;;
18893;SDS011;9579;49.488;8.226;2022-08-27T21:18:55;6.55;;;5.95;;
18893;SDS011;9579;49.488;8.226;2022-08-27T21:21:44;5.80;;;5.30;;
18893;SDS011;9579;49.488;8.226;2022-08-27T21:24:31;5.97;;;5.57;;
18893;SDS011;9579;49.488;8.226;2022-08-27T21:27:19;6.32;;;5.80;;
18893;SDS011;9579;49.488;8.226;2022-08-27T21:30:09;5.80;;;5.30;;
18893;SDS011;9579;49.488;8.226;2022-08-27T21:32:59;6.30;;;5.78;;
18893;SDS011;9579;49.488;8.226;2022-08-27T21:35:46;6.20;;;5.60;;
18893;SDS011;9579;49.488;8.226;2022-08-27T21:38:47;6.50;;;6.00;;
18893;SDS011;9579;49.488;8.226;2022-08-27T21:41:34;5.88;;;5.40;;
18893;SDS011;9579;49.488;8.226;2022-08-27T21:44:22;5.57;;;5.18;;
18893;SDS011;9579;49.488;8.226;2022-08-27T21:47:11;5.35;;;4.95;;
18893;SDS011;9579;49.488;8.226;2022-08-27T21:49:58;6.05;;;5.47;;
18893;SDS011;9579;49.488;8.226;2022-08-27T21:52:45;5.57;;;5.18;;
18893;SDS011;9579;49.488;8.226;2022-08-27T21:55:33;5.65;;;5.15;;
18893;SDS011;9579;49.488;8.226;2022-08-27T21:58:21;6.07;;;5.47;;
18893;SDS011;9579;49.488;8.226;2022-08-27T22:01:09;6.57;;;5.97;;
18893;SDS011;9579;49.488;8.226;2022-08-27T22:03:58;6.20;;;5.70;;
18893;SDS011;9579;49.488;8.226;2022-08-27T22:06:46;5.65;;;5.15;;
18893;SDS011;9579;49.488;8.226;2022-08-27T22:09:33;6.80;;;5.30;;
18893;SDS011;9579;49.488;8.226;2022-08-27T22:12:20;5.47;;;4.97;;
18893;SDS011;9579;49.488;8.226;2022-08-27T22:15:07;5.72;;;5.22;;
18893;SDS011;9579;49.488;8.226;2022-08-27T22:17:55;5.57;;;5.10;;
18893;SDS011;9579;49.488;8.226;2022-08-27T22:20:43;5.35;;;4.95;;
18893;SDS011;9579;49.488;8.226;2022-08-27T22:23:31;5.25;;;4.85;;
18893;SDS011;9579;49.488;8.226;2022-08-27T22:26:18;5.25;;;4.85;;
18893;SDS011;9579;49.488;8.226;2022-08-27T22:29:06;5.85;;;5.35;;
18893;SDS011;9579;49.488;8.226;2022-08-27T22:31:53;4.80;;;4.40;;
18893;SDS011;9579;49.488;8.226;2022-08-27T22:34:40;6.00;;;4.90;;
18893;SDS011;9579;49.488;8.226;2022-08-27T22:37:28;6.32;;;4.63;;
18893;SDS011;9579;49.488;8.226;2022-08-27T22:40:16;5.45;;;4.53;;
18893;SDS011;9579;49.488;8.226;2022-08-27T22:43:06;4.53;;;4.15;;
18893;SDS011;9579;49.488;8.226;2022-08-27T22:45:53;4.07;;;3.67;;
18893;SDS011;9579;49.488;8.226;2022-08-27T22:48:40;3.97;;;3.58;;
18893;SDS011;9579;49.488;8.226;2022-08-27T22:51:27;4.13;;;3.80;;
18893;SDS011;9579;49.488;8.226;2022-08-27T22:54:15;4.53;;;3.70;;
18893;SDS011;9579;49.488;8.226;2022-08-27T22:57:02;4.63;;;3.70;;
18893;SDS011;9579;49.488;8.226;2022-08-27T22:59:50;3.53;;;3.22;;
18893;SDS011;9579;49.488;8.226;2022-08-27T23:02:37;3.83;;;3.45;;
18893;SDS011;9579;49.488;8.226;2022-08-27T23:05:24;4.00;;;3.60;;
18893;SDS011;9579;49.488;8.226;2022-08-27T23:08:12;3.50;;;3.20;;
18893;SDS011;9579;49.488;8.226;2022-08-27T23:11:01;5.20;;;3.45;;
18893;SDS011;9579;49.488;8.226;2022-08-27T23:13:48;3.45;;;3.15;;
18893;SDS011;9579;49.488;8.226;2022-08-27T23:16:35;5.60;;;4.03;;
18893;SDS011;9579;49.488;8.226;2022-08-27T23:19:22;4.05;;;3.65;;
18893;SDS011;9579;49.488;8.226;2022-08-27T23:22:09;3.78;;;3.20;;